EW9744 Weather Reports


Display with metric or nautical units.
time (UTC)temp
F
wind
direction
speed
MPH
gust
MPH
rain 1hr
in
rain 24hr
in
rain mn
in
humidity
%
barometer
mb
20210301121553 34 292 2.0 0.0 0.00 0.00 0.00 96 1019.8
20210301120046 34 292 1.0 0.0 0.00 0.00 0.00 96 1019.8
20210301114527 34 292 1.0 0.0 0.00 0.00 0.00 95 1019.8
20210301113125 34 292 1.0 0.0 0.00 0.00 0.00 95 1020.1
20210301111548 34 292 0.0 0.0 0.00 0.00 0.00 94 1020.1
20210301110038 34 292 1.0 0.0 0.00 0.00 0.00 93 1020.1
20210301104530 35 292 0.0 0.0 0.00 0.00 0.00 93 1020.5
20210301103029 35 292 0.0 0.0 0.00 0.00 0.00 93 1020.5
20210301101551 35 292 0.0 0.0 0.00 0.00 0.00 93 1020.8
20210301100035 35 314 1.0 0.0 0.00 0.00 0.00 93 1021.2
20210301094542 35 315 1.0 0.0 0.00 0.00 0.00 93 1021.2
20210301093040 35 315 1.0 0.0 0.00 0.00 0.00 92 1021.5
20210301091548 35 352 2.0 0.0 0.00 0.00 0.00 92 1021.5
20210301090038 35 277 0.0 0.0 0.00 0.00 0.00 92 1021.5
20210301084533 35 270 2.0 0.0 0.00 0.00 0.00 92 1021.9
20210301083027 35 270 4.0 0.0 0.00 0.00 0.00 92 1021.9
20210301081531 35 277 3.0 0.0 0.00 0.00 0.00 93 1022.2
20210301080037 35 292 2.0 0.0 0.00 0.00 0.00 93 1022.2
20210301074525 35 285 3.0 0.0 0.00 0.00 0.00 93 1022.6
20210301073030 35 270 2.0 0.0 0.00 0.00 0.00 93 1022.6
20210301071534 35 270 1.0 0.0 0.00 0.00 0.00 92 1022.6
20210301070042 35 270 3.0 0.0 0.00 0.00 0.00 91 1023.0
20210301064537 35 270 2.0 0.0 0.00 0.00 0.00 91 1023.0
20210301063030 36 280 3.0 0.0 0.00 0.00 0.00 90 1023.0
20210301061531 36 305 3.0 0.0 0.00 0.00 0.00 89 1023.0
20210301060103 36 292 4.0 0.0 0.00 0.00 0.00 88 1023.0
20210301054548 37 297 3.0 0.0 0.00 0.00 0.00 88 1023.0
20210301053034 37 276 3.0 0.0 0.00 0.00 0.00 88 1023.3
20210301051534 37 272 5.0 0.0 0.00 0.00 0.00 87 1023.3
20210301050035 37 270 8.0 0.0 0.00 0.00 0.00 87 1023.0
20210301044556 37 270 6.0 0.0 0.00 0.00 0.00 86 1023.3
20210301043028 37 270 5.0 0.0 0.00 0.00 0.00 86 1023.3
20210301041531 38 270 6.0 0.0 0.00 0.00 0.00 86 1023.3
20210301040049 38 269 4.0 0.0 0.00 0.00 0.00 85 1023.3
20210301034533 38 279 5.0 0.0 0.00 0.00 0.00 84 1023.3
20210301033028 38 270 7.0 0.0 0.00 0.00 0.00 84 1023.7
20210301031533 39 270 7.0 0.0 0.00 0.00 0.00 83 1023.7
20210301030030 39 277 5.0 0.0 0.00 0.00 0.00 82 1023.7
20210301024528 40 284 4.0 0.0 0.00 0.00 0.00 79 1024.0
20210301023113 41 253 4.0 0.0 0.00 0.00 0.00 77 1023.7
20210301021546 42 248 4.0 0.0 0.00 0.00 0.00 75 1023.7
20210301020046 43 277 5.0 0.0 0.00 0.00 0.00 74 1024.0
20210301014534 43 284 9.0 0.0 0.00 0.00 0.00 73 1024.0
20210301013053 44 287 9.0 0.0 0.00 0.00 0.00 72 1024.0
20210301011555 45 289 8.0 0.0 0.00 0.00 0.00 70 1024.4
20210301010117 46 298 8.0 0.0 0.00 0.00 0.00 67 1024.7
20210301004528 47 309 9.0 0.0 0.00 0.00 0.00 67 1024.7
20210301003036 47 321 9.0 0.0 0.00 0.00 0.00 66 1025.1
20210301001543 48 310 10.0 0.0 0.00 0.00 0.00 65 1025.1
20210301000037 48 310 9.0 0.0 0.00 0.00 0.00 65 1025.5
20210228234534 48 314 9.0 0.0 0.00 0.00 0.00 66 1025.5
20210228233032 47 322 11.0 0.0 0.00 0.00 0.00 66 1025.5
20210228231555 47 325 11.0 0.0 0.00 0.00 0.00 65 1025.5
20210228230035 48 316 11.0 0.0 0.00 0.00 0.00 65 1025.5
20210228224538 48 323 10.0 0.0 0.00 0.00 0.00 65 1025.5
20210228223043 48 313 12.0 0.0 0.00 0.00 0.00 66 1025.8
20210228221528 48 318 10.0 0.0 0.00 0.00 0.00 65 1025.8
20210228220040 48 314 12.0 0.0 0.00 0.00 0.00 64 1025.8
20210228214528 49 310 9.0 0.0 0.00 0.00 0.00 64 1025.8
20210228213039 49 311 10.0 0.0 0.00 0.00 0.00 64 1026.2
20210228211547 49 311 9.0 0.0 0.00 0.00 0.00 64 1026.2
20210228210033 49 336 6.0 0.0 0.00 0.00 0.00 64 1026.5
20210228204534 49 298 8.0 0.0 0.00 0.00 0.00 65 1026.9
20210228203031 48 303 7.0 0.0 0.00 0.00 0.00 66 1026.9
20210228201536 47 318 9.0 0.0 0.00 0.00 0.00 66 1027.2
20210228200036 49 308 7.0 0.0 0.00 0.00 0.00 60 1027.2
20210228194532 49 171 6.0 0.0 0.00 0.00 0.00 57 1027.6
20210228193119 48 168 5.0 0.0 0.00 0.00 0.00 59 1027.6
20210228191533 47 143 5.0 0.0 0.00 0.00 0.00 62 1027.6
20210228190042 47 264 5.0 0.0 0.00 0.00 0.00 65 1027.6
20210228184538 45 238 6.0 0.0 0.00 0.00 0.00 71 1027.6
20210228183116 44 320 9.0 0.0 0.00 0.01 0.00 75 1027.6
20210228181530 42 317 7.0 0.0 0.00 0.02 0.00 78 1027.6
20210228180048 41 333 7.0 0.0 0.00 0.02 0.00 79 1027.6
20210228174546 41 332 5.0 0.0 0.00 0.03 0.00 79 1027.6
20210228173034 41 352 4.0 0.0 0.00 0.03 0.00 78 1027.6
20210228171526 42 49 5.0 0.0 0.00 0.04 0.00 75 1027.9
20210228170035 42 2 3.0 0.0 0.00 0.05 0.00 77 1027.9
20210228164531 39 2 4.0 0.0 0.00 0.06 0.00 84 1027.6
20210228163106 37 276 2.0 0.0 0.00 0.07 0.00 86 1027.6
20210228161529 37 314 1.0 0.0 0.00 0.08 0.00 86 1027.2
20210228160031 37 315 2.0 0.0 0.00 0.09 0.00 87 1027.2
20210228154538 37 315 2.0 0.0 0.00 0.09 0.00 87 1027.2
20210228153047 35 309 1.0 0.0 0.00 0.09 0.00 89 1027.2
20210228151538 35 287 2.0 0.0 0.00 0.09 0.00 90 1027.2
20210228150037 35 292 2.0 0.0 0.00 0.09 0.00 91 1026.9
20210228144550 35 303 1.0 0.0 0.00 0.09 0.00 90 1026.9
20210228143122 35 213 1.0 0.0 0.00 0.09 0.00 90 1026.5
20210228141529 35 139 0.0 0.0 0.00 0.09 0.00 89 1026.5
20210228140031 35 270 2.0 0.0 0.00 0.09 0.00 89 1026.5
20210228134533 35 281 1.0 0.0 0.00 0.09 0.00 89 1026.5
20210228133126 35 304 4.0 0.0 0.00 0.09 0.00 89 1026.5
20210228131545 35 306 4.0 0.0 0.00 0.09 0.00 87 1026.2
20210228130044 36 304 5.0 0.0 0.00 0.09 0.00 85 1026.2
20210228124525 37 263 2.0 0.0 0.00 0.09 0.00 82 1026.2
20210228123118 37 231 2.0 0.0 0.00 0.09 0.00 82 1026.2